createdAt,value
2017-10-16T00:00:37.043Z,99.90
2017-10-16T00:03:12.082Z,99.90
2017-10-16T00:05:41.387Z,99.90
2017-10-16T00:08:09.786Z,99.90
2017-10-16T00:10:38.213Z,99.90
2017-10-16T00:13:07.762Z,99.90
2017-10-16T00:15:36.858Z,99.90
2017-10-16T00:18:05.187Z,99.90
2017-10-16T00:20:34.500Z,99.90
2017-10-16T00:23:03.239Z,99.90
2017-10-16T00:25:31.844Z,99.90
2017-10-16T00:28:02.551Z,99.90
2017-10-16T00:30:30.980Z,99.90
2017-10-16T00:33:02.690Z,99.90
2017-10-16T00:35:31.969Z,99.90
2017-10-16T00:38:03.697Z,99.90
2017-10-16T00:40:32.676Z,99.90
2017-10-16T00:43:01.055Z,99.90
2017-10-16T00:45:35.084Z,99.90
2017-10-16T00:48:03.649Z,99.90
2017-10-16T00:50:33.111Z,99.90
2017-10-16T00:53:09.553Z,99.90
2017-10-16T00:55:38.048Z,99.90
2017-10-16T00:58:07.193Z,99.90
2017-10-16T01:00:38.476Z,99.90
2017-10-16T01:03:07.591Z,99.90
2017-10-16T01:05:38.689Z,99.90
2017-10-16T01:08:09.833Z,99.90
2017-10-16T01:10:40.242Z,99.90
2017-10-16T01:13:08.545Z,99.90
2017-10-16T01:15:45.025Z,99.90
2017-10-16T01:18:13.397Z,99.90
2017-10-16T01:20:41.748Z,99.90
2017-10-16T01:23:10.116Z,99.90
2017-10-16T01:25:38.443Z,99.90
2017-10-16T01:28:07.522Z,99.90
2017-10-16T01:30:36.604Z,99.90
2017-10-16T01:33:05.875Z,99.90
2017-10-16T01:35:35.942Z,99.90
2017-10-16T01:38:05.088Z,99.90
2017-10-16T01:40:34.190Z,99.90
2017-10-16T01:43:02.504Z,99.90
2017-10-16T01:45:31.643Z,99.90
2017-10-16T01:48:00.752Z,99.90
2017-10-16T01:50:29.080Z,99.90
2017-10-16T01:52:57.384Z,99.90
2017-10-16T01:55:25.711Z,99.90
2017-10-16T01:57:54.016Z,99.90
2017-10-16T02:00:22.337Z,99.90
2017-10-16T02:02:52.742Z,99.90
2017-10-16T02:05:22.475Z,99.90
2017-10-16T02:07:50.890Z,99.90
2017-10-16T02:10:20.844Z,99.90
2017-10-16T02:12:53.890Z,99.90
2017-10-16T02:15:23.135Z,99.90
2017-10-16T02:17:51.816Z,99.90
2017-10-16T02:20:20.152Z,99.90
2017-10-16T02:22:49.184Z,99.90
2017-10-16T02:25:18.381Z,99.90
2017-10-16T02:27:48.307Z,99.90
2017-10-16T02:30:16.739Z,99.90
2017-10-16T02:32:45.078Z,99.90
2017-10-16T02:35:14.274Z,99.90
2017-10-16T02:37:45.260Z,99.90
2017-10-16T02:40:13.699Z,99.90
2017-10-16T02:42:42.051Z,99.90
2017-10-16T02:45:10.367Z,99.90
2017-10-16T02:47:38.691Z,99.90
2017-10-16T02:50:07.017Z,99.90
2017-10-16T02:52:36.508Z,99.90
2017-10-16T02:55:04.888Z,99.90
2017-10-16T02:57:33.252Z,99.90
2017-10-16T03:00:01.579Z,99.90
2017-10-16T03:02:29.882Z,99.90
2017-10-16T03:04:58.204Z,99.90
2017-10-16T03:07:27.297Z,99.90
2017-10-16T03:09:55.602Z,99.90
2017-10-16T03:12:23.916Z,99.90
2017-10-16T03:14:53.004Z,99.90
2017-10-16T03:17:21.299Z,99.90
2017-10-16T03:19:50.388Z,99.90
2017-10-16T03:22:18.813Z,99.90
2017-10-16T03:24:47.139Z,99.90
2017-10-16T03:27:15.511Z,99.90
2017-10-16T03:29:43.821Z,99.90
2017-10-16T03:32:12.127Z,99.90
2017-10-16T03:34:40.422Z,99.90
2017-10-16T03:37:08.742Z,99.90
2017-10-16T03:39:37.061Z,99.90
2017-10-16T03:42:05.404Z,99.90
2017-10-16T03:44:33.728Z,99.90
2017-10-16T03:47:02.055Z,99.90
2017-10-16T03:49:30.552Z,99.90
2017-10-16T03:51:58.884Z,99.90
2017-10-16T03:54:28.006Z,99.90
2017-10-16T03:56:56.358Z,99.90
2017-10-16T03:59:26.027Z,99.90
2017-10-16T04:01:55.300Z,99.90
2017-10-16T04:04:24.571Z,99.90
2017-10-16T04:06:53.914Z,99.90
2017-10-16T04:09:22.982Z,99.90
2017-10-16T04:11:51.289Z,99.90
2017-10-16T04:14:19.620Z,99.90
2017-10-16T04:16:47.981Z,99.90
2017-10-16T04:19:17.525Z,99.90
2017-10-16T04:21:45.899Z,99.90
2017-10-16T04:24:14.995Z,99.90
2017-10-16T04:26:44.687Z,99.90
2017-10-16T04:29:13.011Z,99.90
2017-10-16T04:31:41.364Z,99.90
2017-10-16T04:34:09.695Z,99.90
2017-10-16T04:36:38.021Z,99.90
2017-10-16T04:39:07.135Z,99.90
2017-10-16T04:41:36.195Z,99.90
2017-10-16T04:44:05.292Z,99.90
2017-10-16T04:46:34.674Z,99.90
2017-10-16T04:49:03.011Z,99.90
2017-10-16T04:51:31.373Z,99.90
2017-10-16T04:54:00.456Z,99.90
2017-10-16T04:56:28.754Z,99.90
2017-10-16T04:58:57.098Z,99.90
2017-10-16T05:01:26.158Z,99.90
2017-10-16T05:03:54.502Z,99.90
2017-10-16T05:06:22.857Z,99.90
2017-10-16T05:08:51.159Z,99.90
2017-10-16T05:11:19.573Z,99.90
2017-10-16T05:13:47.907Z,99.90
2017-10-16T05:16:16.239Z,99.90
2017-10-16T05:18:45.390Z,99.90
2017-10-16T05:21:14.028Z,99.90
2017-10-16T05:23:42.411Z,99.90
2017-10-16T05:26:10.854Z,99.90
2017-10-16T05:28:40.002Z,99.90
2017-10-16T05:31:08.343Z,99.90
2017-10-16T05:33:36.690Z,99.90
2017-10-16T05:36:05.015Z,99.90
2017-10-16T05:38:33.926Z,99.90
2017-10-16T05:41:02.225Z,99.90
2017-10-16T05:43:30.554Z,99.90
2017-10-16T05:45:58.849Z,99.90
2017-10-16T05:48:27.194Z,99.90
2017-10-16T05:50:55.558Z,99.90
2017-10-16T05:53:23.890Z,99.90
2017-10-16T05:55:52.202Z,99.90
2017-10-16T05:58:21.311Z,99.90
2017-10-16T06:00:50.460Z,99.90
2017-10-16T06:03:18.847Z,99.90
2017-10-16T06:05:47.461Z,99.90
2017-10-16T06:08:17.096Z,99.90
2017-10-16T06:10:52.680Z,99.90
2017-10-16T06:13:21.180Z,99.90
2017-10-16T06:15:49.504Z,99.90
2017-10-16T06:18:17.940Z,99.90
2017-10-16T06:20:47.825Z,99.90
2017-10-16T06:23:17.069Z,99.90
2017-10-16T06:25:51.327Z,99.90
2017-10-16T06:28:21.236Z,99.90
2017-10-16T06:30:54.618Z,99.90
2017-10-16T06:33:23.065Z,99.90
2017-10-16T06:35:51.460Z,99.90
2017-10-16T06:38:21.610Z,99.90
2017-10-16T06:40:50.947Z,99.90
2017-10-16T06:43:19.342Z,99.90
2017-10-16T06:45:48.594Z,99.90
2017-10-16T06:48:16.982Z,99.90
2017-10-16T06:50:45.326Z,99.90
2017-10-16T06:53:13.692Z,99.90
2017-10-16T06:55:42.043Z,99.90
2017-10-16T06:58:11.475Z,99.90
2017-10-16T07:00:41.345Z,99.90
2017-10-16T07:03:11.220Z,99.90
2017-10-16T07:05:40.337Z,99.90
2017-10-16T07:08:08.695Z,99.90
2017-10-16T07:10:37.811Z,99.90
2017-10-16T07:13:06.911Z,99.90
2017-10-16T07:15:35.242Z,99.90
2017-10-16T07:18:04.342Z,99.90
2017-10-16T07:20:33.647Z,99.90
2017-10-16T07:23:02.055Z,99.90
2017-10-16T07:25:33.242Z,99.90
2017-10-16T07:28:01.581Z,99.90
2017-10-16T07:30:29.955Z,99.90
2017-10-16T07:32:59.052Z,99.90
2017-10-16T07:35:39.875Z,99.90
2017-10-16T07:38:08.492Z,99.90
2017-10-16T07:40:36.854Z,99.90
2017-10-16T07:43:05.176Z,99.90
2017-10-16T07:45:33.522Z,99.90
2017-10-16T07:48:01.845Z,99.90
2017-10-16T07:50:30.241Z,99.90
2017-10-16T07:52:58.590Z,99.90
2017-10-16T07:55:33.052Z,99.90
2017-10-16T07:58:09.215Z,99.90
2017-10-16T08:00:38.354Z,99.90
2017-10-16T08:03:07.448Z,99.90
2017-10-16T08:05:37.255Z,99.90
2017-10-16T08:08:05.555Z,99.90
2017-10-16T08:10:33.856Z,99.90
2017-10-16T08:13:02.982Z,99.90
2017-10-16T08:15:31.421Z,99.90
2017-10-16T08:17:59.808Z,99.90
2017-10-16T08:23:19.575Z,99.90
2017-10-16T08:25:52.531Z,99.90
2017-10-16T08:28:22.959Z,99.90
2017-10-16T08:30:52.054Z,99.90
2017-10-16T08:33:23.235Z,99.90
2017-10-16T08:35:51.615Z,96.90
2017-10-16T08:38:19.958Z,98.00
2017-10-16T08:40:48.283Z,98.60
2017-10-16T08:43:17.973Z,99.90
2017-10-16T08:45:47.263Z,99.90
2017-10-16T08:48:15.679Z,98.80
2017-10-16T08:50:48.035Z,97.20
2017-10-16T08:53:16.786Z,95.00
2017-10-16T08:55:50.751Z,92.80
2017-10-16T08:58:19.859Z,87.70
2017-10-16T09:00:50.458Z,87.90
2017-10-16T09:03:21.573Z,86.60
2017-10-16T09:05:50.714Z,84.60
2017-10-16T09:08:21.194Z,84.60
2017-10-16T09:10:51.335Z,82.30
2017-10-16T09:13:20.830Z,81.50
2017-10-16T09:15:50.886Z,80.30
2017-10-16T09:18:20.346Z,80.40
2017-10-16T09:20:50.465Z,80.20
2017-10-16T09:23:18.876Z,81.00
2017-10-16T09:25:48.908Z,79.10
2017-10-16T09:28:23.753Z,79.10
2017-10-16T09:30:52.282Z,76.50
2017-10-16T09:33:21.662Z,72.80
2017-10-16T09:35:50.784Z,73.30
2017-10-16T09:38:20.028Z,73.30
2017-10-16T09:40:49.188Z,69.90
2017-10-16T09:43:19.744Z,71.90
2017-10-16T09:45:49.077Z,71.90
2017-10-16T09:48:19.780Z,68.80
2017-10-16T09:50:57.949Z,70.20
2017-10-16T09:53:31.198Z,70.20
2017-10-16T09:56:10.655Z,62.90
2017-10-16T09:58:44.524Z,63.00
2017-10-16T10:01:17.631Z,65.10
2017-10-16T10:03:46.787Z,65.90
2017-10-16T10:06:16.667Z,64.50
2017-10-16T10:08:47.226Z,66.10
2017-10-16T10:11:20.014Z,63.30
2017-10-16T10:13:48.374Z,63.50
2017-10-16T10:16:18.133Z,63.60
2017-10-16T10:18:46.815Z,61.40
2017-10-16T10:21:27.845Z,60.70
2017-10-16T10:24:01.777Z,61.00
2017-10-16T10:26:31.737Z,61.10
2017-10-16T10:29:05.310Z,60.20
2017-10-16T10:31:45.832Z,59.70
2017-10-16T10:34:17.993Z,60.50
2017-10-16T10:36:54.530Z,57.20
2017-10-16T10:39:26.772Z,58.10
2017-10-16T10:41:55.141Z,58.40
2017-10-16T10:44:24.247Z,57.80
2017-10-16T10:46:52.622Z,58.30
2017-10-16T10:49:22.654Z,56.60
2017-10-16T10:51:51.095Z,58.20
2017-10-16T10:54:19.495Z,57.20
2017-10-16T10:56:48.896Z,57.20
2017-10-16T10:59:17.940Z,57.40
2017-10-16T11:01:49.389Z,56.60
2017-10-16T11:04:18.792Z,56.40
2017-10-16T11:06:47.631Z,55.20
2017-10-16T11:09:16.015Z,56.30
2017-10-16T11:11:44.339Z,56.20
2017-10-16T11:14:12.669Z,56.80
2017-10-16T11:16:43.057Z,55.10
2017-10-16T11:19:12.309Z,55.20
2017-10-16T11:21:41.405Z,55.40
2017-10-16T11:24:09.787Z,55.50
2017-10-16T11:26:38.738Z,55.50
2017-10-16T11:29:07.195Z,55.30
2017-10-16T11:31:35.605Z,56.10
2017-10-16T11:34:04.054Z,55.80
2017-10-16T11:36:33.584Z,55.50
2017-10-16T11:39:01.948Z,55.60
2017-10-16T11:41:30.314Z,55.70
2017-10-16T11:43:58.636Z,56.80
2017-10-16T11:46:27.561Z,56.40
2017-10-16T11:48:55.868Z,57.60
2017-10-16T11:51:24.243Z,57.00
2017-10-16T11:53:52.624Z,57.60
2017-10-16T11:56:21.469Z,56.50
2017-10-16T11:58:49.758Z,56.10
2017-10-16T12:01:20.444Z,55.40
2017-10-16T12:03:49.103Z,54.40
2017-10-16T12:06:19.243Z,54.20
2017-10-16T12:08:48.369Z,52.60
2017-10-16T12:11:16.732Z,50.80
2017-10-16T12:13:45.872Z,52.50
2017-10-16T12:16:21.033Z,53.90
2017-10-16T12:18:50.602Z,54.20
2017-10-16T12:21:18.984Z,53.80
2017-10-16T12:23:49.146Z,55.40
2017-10-16T12:26:18.608Z,54.60
2017-10-16T12:28:46.984Z,54.20
2017-10-16T12:31:20.224Z,52.60
2017-10-16T12:33:53.765Z,52.60
2017-10-16T12:36:23.028Z,54.40
2017-10-16T12:38:51.441Z,54.10
2017-10-16T12:41:20.682Z,51.20
2017-10-16T12:43:50.865Z,50.90
2017-10-16T12:46:19.272Z,51.10
2017-10-16T12:48:49.728Z,51.80
2017-10-16T12:52:58.382Z,51.20
2017-10-16T12:55:28.409Z,50.30
2017-10-16T13:03:20.127Z,51.70
2017-10-16T13:05:48.672Z,53.00
2017-10-16T13:08:17.014Z,51.90
2017-10-16T13:10:45.361Z,51.70
2017-10-16T13:13:13.781Z,53.60
2017-10-16T13:15:42.128Z,52.70
2017-10-16T13:18:10.479Z,52.60
2017-10-16T13:20:38.930Z,54.30
2017-10-16T13:23:07.323Z,53.60
2017-10-16T13:25:35.757Z,52.80
2017-10-16T13:28:05.631Z,52.90
2017-10-16T13:30:36.128Z,53.20
2017-10-16T13:33:07.055Z,53.10
2017-10-16T13:35:35.585Z,53.50
2017-10-16T13:38:05.009Z,54.10
2017-10-16T13:40:35.689Z,54.10
2017-10-16T13:43:07.839Z,54.40
2017-10-16T13:45:36.895Z,53.50
2017-10-16T13:48:05.506Z,54.30
2017-10-16T13:50:34.079Z,53.60
2017-10-16T13:53:03.462Z,52.50
2017-10-16T13:55:34.203Z,52.60
2017-10-16T13:58:08.622Z,53.90
2017-10-16T14:00:40.566Z,54.00
2017-10-16T14:06:01.102Z,53.60
2017-10-16T14:08:29.685Z,53.70
2017-10-16T14:10:58.414Z,53.00
2017-10-16T14:13:29.045Z,52.60
2017-10-16T14:15:57.431Z,52.70
2017-10-16T14:18:26.457Z,53.00
2017-10-16T14:21:10.213Z,53.80
2017-10-16T14:28:22.277Z,52.90
2017-10-16T14:30:56.129Z,53.00
2017-10-16T14:33:24.541Z,54.90
2017-10-16T14:35:52.836Z,54.30
2017-10-16T14:38:21.157Z,54.40
2017-10-16T14:40:54.943Z,54.30
2017-10-16T14:43:24.070Z,54.50
2017-10-16T14:45:54.057Z,54.50
2017-10-16T14:48:22.595Z,54.30
2017-10-16T14:50:50.938Z,54.60
2017-10-16T14:53:19.404Z,54.80
2017-10-16T14:55:49.446Z,54.80
2017-10-16T14:58:20.418Z,55.60
2017-10-16T15:00:55.528Z,57.10
2017-10-16T15:03:38.743Z,55.70
2017-10-16T15:06:10.483Z,56.80
2017-10-16T15:08:40.471Z,58.10
2017-10-16T15:11:08.800Z,57.40
2017-10-16T15:13:39.823Z,58.30
2017-10-16T15:16:10.157Z,58.30
2017-10-16T15:18:38.633Z,59.30
2017-10-16T15:21:06.939Z,59.50
2017-10-16T15:23:35.381Z,60.20
2017-10-16T15:26:07.633Z,60.70
2017-10-16T15:28:36.010Z,61.90
2017-10-16T15:31:05.072Z,60.70
2017-10-16T15:33:38.772Z,61.40
2017-10-16T15:36:08.434Z,61.40
2017-10-16T15:38:36.735Z,62.00
2017-10-16T15:41:13.515Z,62.30
2017-10-16T15:43:42.191Z,63.00
2017-10-16T15:46:11.403Z,62.80
2017-10-16T15:48:40.507Z,63.30
2017-10-16T15:51:08.892Z,63.30
2017-10-16T15:53:37.213Z,65.30
2017-10-16T15:56:05.505Z,66.90
2017-10-16T15:58:36.239Z,66.10
2017-10-16T16:01:05.584Z,66.10
2017-10-16T16:03:36.140Z,65.90
2017-10-16T16:06:04.544Z,67.20
2017-10-16T16:08:36.237Z,67.80
2017-10-16T16:11:08.140Z,69.80
2017-10-16T16:13:46.476Z,70.30
2017-10-16T16:16:28.242Z,70.90
2017-10-16T16:19:20.911Z,71.70
2017-10-16T16:21:51.580Z,72.90
2017-10-16T16:24:21.071Z,74.10
2017-10-16T16:26:53.240Z,75.40
2017-10-16T16:29:23.280Z,77.70
2017-10-16T16:31:50.994Z,76.90
2017-10-16T16:34:20.541Z,77.90
2017-10-16T16:36:50.626Z,78.30
2017-10-16T16:39:19.173Z,79.90
2017-10-16T16:41:47.793Z,80.20
2017-10-16T16:44:17.172Z,80.30
2017-10-16T16:46:46.281Z,82.40
2017-10-16T16:49:15.204Z,83.00
2017-10-16T16:51:44.612Z,83.10
2017-10-16T16:54:13.668Z,82.90
2017-10-16T16:56:41.986Z,84.20
2017-10-16T16:59:11.218Z,84.60
2017-10-16T17:01:52.918Z,85.80
2017-10-16T17:04:22.710Z,84.90
2017-10-16T17:06:53.216Z,86.00
2017-10-16T17:09:33.189Z,86.50
2017-10-16T17:12:18.266Z,86.80
2017-10-16T17:14:55.832Z,86.60
2017-10-16T17:17:35.726Z,88.10
2017-10-16T17:20:04.044Z,88.30
2017-10-16T17:22:34.596Z,89.10
2017-10-16T17:25:06.852Z,89.80
2017-10-16T17:27:37.401Z,90.10
2017-10-16T17:30:19.921Z,91.70
2017-10-16T17:32:51.412Z,91.80
2017-10-16T17:35:20.614Z,92.00
2017-10-16T17:37:50.844Z,92.40
2017-10-16T17:40:19.189Z,92.70
2017-10-16T17:42:48.173Z,93.10
2017-10-16T17:45:19.962Z,93.30
2017-10-16T17:50:45.899Z,93.60
2017-10-16T17:53:14.325Z,93.60
2017-10-16T17:55:42.673Z,93.40
2017-10-16T17:58:11.754Z,94.50
2017-10-16T18:00:40.180Z,94.40
2017-10-16T18:03:08.614Z,94.60
2017-10-16T18:05:36.969Z,94.70
2017-10-16T18:08:05.295Z,95.00
2017-10-16T18:10:33.913Z,95.40
2017-10-16T18:13:02.988Z,96.90
2017-10-16T18:15:31.395Z,95.90
2017-10-16T18:18:01.698Z,97.50
2017-10-16T18:20:30.037Z,97.40
2017-10-16T18:22:58.429Z,98.00
2017-10-16T18:25:26.877Z,98.50
2017-10-16T18:27:55.194Z,98.40
2017-10-16T18:30:23.617Z,98.20
2017-10-16T18:32:52.065Z,97.30
2017-10-16T18:35:20.569Z,97.10
2017-10-16T18:37:49.970Z,96.70
2017-10-16T18:40:18.716Z,96.20
2017-10-16T18:42:47.032Z,96.00
2017-10-16T18:45:16.118Z,96.40
2017-10-16T18:47:44.466Z,96.40
2017-10-16T18:50:12.996Z,97.10
2017-10-16T18:52:42.070Z,98.00
2017-10-16T18:55:10.485Z,98.00
2017-10-16T18:57:38.786Z,98.30
2017-10-16T19:00:07.153Z,98.50
2017-10-16T19:02:35.531Z,98.20
2017-10-16T19:05:04.694Z,97.50
2017-10-16T19:07:33.864Z,97.60
2017-10-16T19:10:02.970Z,97.60
2017-10-16T19:12:31.301Z,97.60
2017-10-16T19:14:59.620Z,96.70
2017-10-16T19:17:28.726Z,96.90
2017-10-16T19:19:57.039Z,96.80
2017-10-16T19:22:26.137Z,95.70
2017-10-16T19:24:54.503Z,95.70
2017-10-16T19:27:22.832Z,95.90
2017-10-16T19:29:51.579Z,96.00
2017-10-16T19:32:20.012Z,95.80
2017-10-16T19:34:48.440Z,95.20
2017-10-16T19:37:17.643Z,95.90
2017-10-16T19:39:46.238Z,96.60
2017-10-16T19:42:14.541Z,97.40
2017-10-16T19:44:42.870Z,97.40
2017-10-16T19:47:11.339Z,97.90
2017-10-16T19:49:39.645Z,98.30
2017-10-16T19:52:08.087Z,98.40
2017-10-16T19:54:36.486Z,98.70
2017-10-16T19:57:04.799Z,98.40
2017-10-16T19:59:34.724Z,99.00
2017-10-16T20:02:03.092Z,99.00
2017-10-16T20:04:31.542Z,98.90
2017-10-16T20:06:59.869Z,99.20
2017-10-16T20:09:29.083Z,98.40
2017-10-16T20:11:57.409Z,98.40
2017-10-16T20:14:25.739Z,98.60
2017-10-16T20:16:54.136Z,98.20
2017-10-16T20:19:22.551Z,97.40
2017-10-16T20:21:50.861Z,96.90
2017-10-16T20:24:19.257Z,97.00
2017-10-16T20:26:47.716Z,97.40
2017-10-16T20:29:16.737Z,98.00
2017-10-16T20:31:45.889Z,99.10
2017-10-16T20:34:14.235Z,99.10
2017-10-16T20:36:42.577Z,98.70
2017-10-16T20:39:10.957Z,99.00
2017-10-16T20:41:39.278Z,98.80
2017-10-16T20:44:07.597Z,98.60
2017-10-16T20:46:36.691Z,98.60
2017-10-16T20:49:05.031Z,98.60
2017-10-16T20:51:33.414Z,98.50
2017-10-16T20:54:01.725Z,99.20
2017-10-16T20:56:30.830Z,99.90
2017-10-16T20:58:59.955Z,99.90
2017-10-16T21:01:28.804Z,99.90
2017-10-16T21:03:57.912Z,99.90
2017-10-16T21:06:26.218Z,99.90
2017-10-16T21:08:54.594Z,99.90
2017-10-16T21:11:22.914Z,99.90
2017-10-16T21:13:51.270Z,99.90
2017-10-16T21:16:20.364Z,99.90
2017-10-16T21:18:48.724Z,99.90
2017-10-16T21:21:17.074Z,99.90
2017-10-16T21:23:45.405Z,99.90
2017-10-16T21:26:13.727Z,99.90
2017-10-16T21:28:42.856Z,99.90
2017-10-16T21:31:11.257Z,99.90
2017-10-16T21:33:40.344Z,99.90
2017-10-16T21:36:08.702Z,99.90
2017-10-16T21:38:37.025Z,99.90
2017-10-16T21:41:06.098Z,99.90
2017-10-16T21:43:35.197Z,99.70
2017-10-16T21:46:03.555Z,99.60
2017-10-16T21:48:31.898Z,99.90
2017-10-16T21:51:00.953Z,99.90
2017-10-16T21:53:30.870Z,99.90
2017-10-16T21:55:59.292Z,99.90
2017-10-16T21:58:28.488Z,99.90
2017-10-16T22:00:56.794Z,99.90
2017-10-16T22:03:25.105Z,99.90
2017-10-16T22:05:53.465Z,99.90
2017-10-16T22:08:21.788Z,99.90
2017-10-16T22:10:50.929Z,99.90
2017-10-16T22:13:19.252Z,99.90
2017-10-16T22:15:47.727Z,99.90
2017-10-16T22:18:16.042Z,99.90
2017-10-16T22:20:44.376Z,99.90
2017-10-16T22:23:13.469Z,99.90
2017-10-16T22:25:41.823Z,99.90
2017-10-16T22:28:10.130Z,99.90
2017-10-16T22:30:38.479Z,99.90
2017-10-16T22:33:06.782Z,99.90
2017-10-16T22:35:35.089Z,99.90
2017-10-16T22:38:03.455Z,99.90
2017-10-16T22:40:31.759Z,99.90
2017-10-16T22:43:00.088Z,99.90
2017-10-16T22:45:28.404Z,99.90
2017-10-16T22:47:56.752Z,99.90
2017-10-16T22:50:25.121Z,99.90
2017-10-16T22:52:57.497Z,99.90
2017-10-16T22:55:25.859Z,99.90
2017-10-16T22:57:54.985Z,99.90
2017-10-16T23:00:23.320Z,99.90
2017-10-16T23:02:51.709Z,99.90
2017-10-16T23:05:20.837Z,99.90
2017-10-16T23:07:49.162Z,99.90
2017-10-16T23:10:17.494Z,99.90
2017-10-16T23:12:45.806Z,99.90
2017-10-16T23:15:14.119Z,99.90
2017-10-16T23:17:42.428Z,99.90
2017-10-16T23:20:10.822Z,99.90
2017-10-16T23:22:39.118Z,99.90
2017-10-16T23:25:07.455Z,99.90
2017-10-16T23:27:35.784Z,99.90
2017-10-16T23:30:04.135Z,99.90
2017-10-16T23:32:32.458Z,99.90
2017-10-16T23:35:00.785Z,99.90
2017-10-16T23:37:29.898Z,99.90
2017-10-16T23:39:58.207Z,99.90
2017-10-16T23:42:27.280Z,99.90
2017-10-16T23:44:56.375Z,99.90
2017-10-16T23:47:24.765Z,99.90
2017-10-16T23:49:53.462Z,99.90
2017-10-16T23:52:23.067Z,99.90
2017-10-16T23:54:51.417Z,99.90
2017-10-16T23:57:19.746Z,99.90
2017-10-16T23:59:48.873Z,99.90
